CGVLD CYKF-CYXU
Flight info
| Callsign | CGVLD |
|---|---|
| Flight time | 0h 19m |
| Altitude | 2000 |
| Route | CYKF/32 |
| Aircraft | PA24 |
Departure
| Time | 2026-05-06 23:01 |
|---|---|
| Airport | Region of Waterloo International Airport (CYKF) |
Arrival
| Time | 2026-05-06 23:21 |
|---|---|
| Airport | London International Airport (CYXU) |
| Time | Latitude | Longitude | Altitude | Speed | Heading |
|---|---|---|---|---|---|
| 2026-05-06 23:00 | 43.45538 | -80.37989 | 1033 ft | 15 kts | 33° |
| 2026-05-06 23:00 | 43.45612 | -80.38061 | 1032 ft | 26 kts | 306° |
| 2026-05-06 23:00 | 43.45823 | -80.38413 | 1070 ft | 61 kts | 305° |
| 2026-05-06 23:00 | 43.46113 | -80.38940 | 1262 ft | 75 kts | 305° |
| 2026-05-06 23:01 | 43.46352 | -80.39604 | 1527 ft | 89 kts | 280° |
| 2026-05-06 23:01 | 43.46228 | -80.40516 | 1778 ft | 106 kts | 252° |
| 2026-05-06 23:01 | 43.45787 | -80.41391 | 2025 ft | 118 kts | 237° |
| 2026-05-06 23:01 | 43.45250 | -80.42290 | 2300 ft | 124 kts | 236° |
| 2026-05-06 23:02 | 43.44674 | -80.43201 | 2568 ft | 127 kts | 236° |
| 2026-05-06 23:02 | 43.44097 | -80.44097 | 2868 ft | 124 kts | 237° |
| 2026-05-06 23:02 | 43.43512 | -80.44963 | 3161 ft | 125 kts | 234° |
| 2026-05-06 23:02 | 43.42896 | -80.45818 | 3421 ft | 126 kts | 232° |
| 2026-05-06 23:03 | 43.42245 | -80.46623 | 3684 ft | 126 kts | 229° |
| 2026-05-06 23:03 | 43.41598 | -80.47445 | 3953 ft | 127 kts | 231° |
| 2026-05-06 23:03 | 43.40951 | -80.48287 | 4221 ft | 128 kts | 231° |
| 2026-05-06 23:03 | 43.40311 | -80.49133 | 4473 ft | 128 kts | 231° |
| 2026-05-06 23:04 | 43.39634 | -80.49995 | 4605 ft | 139 kts | 229° |
| 2026-05-06 23:04 | 43.38944 | -80.50999 | 4615 ft | 149 kts | 230° |
| 2026-05-06 23:04 | 43.38169 | -80.51960 | 4605 ft | 150 kts | 229° |
| 2026-05-06 23:04 | 43.37392 | -80.52905 | 4599 ft | 149 kts | 229° |
| 2026-05-06 23:05 | 43.36625 | -80.53842 | 4595 ft | 146 kts | 229° |
| 2026-05-06 23:05 | 43.35902 | -80.54789 | 4598 ft | 142 kts | 232° |
| 2026-05-06 23:05 | 43.35195 | -80.55733 | 4599 ft | 141 kts | 232° |
| 2026-05-06 23:05 | 43.34490 | -80.56671 | 4601 ft | 141 kts | 232° |
| 2026-05-06 23:06 | 43.33782 | -80.57609 | 4605 ft | 141 kts | 232° |
| 2026-05-06 23:06 | 43.33074 | -80.58544 | 4605 ft | 140 kts | 232° |
| 2026-05-06 23:06 | 43.32367 | -80.59472 | 4606 ft | 141 kts | 233° |
| 2026-05-06 23:06 | 43.31657 | -80.60415 | 4608 ft | 142 kts | 233° |
| 2026-05-06 23:07 | 43.30950 | -80.61340 | 4610 ft | 142 kts | 232° |
| 2026-05-06 23:07 | 43.30242 | -80.62279 | 4611 ft | 142 kts | 232° |
| 2026-05-06 23:07 | 43.29522 | -80.63234 | 4622 ft | 142 kts | 232° |
| 2026-05-06 23:07 | 43.28822 | -80.64190 | 4622 ft | 142 kts | 235° |
| 2026-05-06 23:08 | 43.28161 | -80.65160 | 4623 ft | 141 kts | 236° |
| 2026-05-06 23:08 | 43.27496 | -80.66149 | 4624 ft | 141 kts | 236° |
| 2026-05-06 23:08 | 43.26832 | -80.67138 | 4625 ft | 140 kts | 236° |
| 2026-05-06 23:08 | 43.26170 | -80.68123 | 4624 ft | 141 kts | 235° |
| 2026-05-06 23:09 | 43.25504 | -80.69107 | 4620 ft | 141 kts | 236° |
| 2026-05-06 23:09 | 43.24839 | -80.70097 | 4617 ft | 141 kts | 236° |
| 2026-05-06 23:09 | 43.24180 | -80.71090 | 4621 ft | 141 kts | 236° |
| 2026-05-06 23:09 | 43.23519 | -80.72081 | 4622 ft | 141 kts | 236° |
| 2026-05-06 23:10 | 43.22851 | -80.73072 | 4625 ft | 142 kts | 236° |
| 2026-05-06 23:10 | 43.22183 | -80.74071 | 4624 ft | 142 kts | 236° |
| 2026-05-06 23:10 | 43.21516 | -80.75073 | 4622 ft | 142 kts | 236° |
| 2026-05-06 23:10 | 43.20847 | -80.76077 | 4626 ft | 142 kts | 236° |
| 2026-05-06 23:11 | 43.20180 | -80.77078 | 4628 ft | 142 kts | 236° |
| 2026-05-06 23:11 | 43.19515 | -80.78085 | 4628 ft | 143 kts | 236° |
| 2026-05-06 23:11 | 43.18846 | -80.79096 | 4628 ft | 143 kts | 236° |
| 2026-05-06 23:11 | 43.18176 | -80.80099 | 4629 ft | 142 kts | 236° |
| 2026-05-06 23:12 | 43.17515 | -80.81093 | 4627 ft | 141 kts | 236° |
| 2026-05-06 23:12 | 43.16856 | -80.82090 | 4628 ft | 142 kts | 235° |
| 2026-05-06 23:12 | 43.16191 | -80.83089 | 4629 ft | 142 kts | 236° |
| 2026-05-06 23:12 | 43.15529 | -80.84086 | 4630 ft | 141 kts | 236° |
| 2026-05-06 23:13 | 43.14865 | -80.85085 | 4630 ft | 142 kts | 236° |
| 2026-05-06 23:13 | 43.14202 | -80.86086 | 4630 ft | 142 kts | 236° |
| 2026-05-06 23:13 | 43.13532 | -80.87077 | 4630 ft | 142 kts | 236° |
| 2026-05-06 23:13 | 43.12847 | -80.88082 | 4528 ft | 145 kts | 236° |
| 2026-05-06 23:14 | 43.12169 | -80.89101 | 4378 ft | 144 kts | 236° |
| 2026-05-06 23:14 | 43.11503 | -80.90118 | 4179 ft | 143 kts | 236° |
| 2026-05-06 23:14 | 43.10815 | -80.91123 | 3883 ft | 145 kts | 230° |
| 2026-05-06 23:14 | 43.10084 | -80.92070 | 3558 ft | 144 kts | 230° |
| 2026-05-06 23:15 | 43.09364 | -80.93030 | 3218 ft | 146 kts | 230° |
| 2026-05-06 23:15 | 43.08648 | -80.94022 | 2878 ft | 146 kts | 230° |
| 2026-05-06 23:15 | 43.07946 | -80.95021 | 2543 ft | 146 kts | 230° |
| 2026-05-06 23:15 | 43.07238 | -80.96012 | 2253 ft | 144 kts | 230° |
| 2026-05-06 23:16 | 43.06525 | -80.97016 | 2045 ft | 149 kts | 230° |
| 2026-05-06 23:16 | 43.05806 | -80.98039 | 1945 ft | 150 kts | 229° |
| 2026-05-06 23:16 | 43.05082 | -80.99049 | 1923 ft | 148 kts | 230° |
| 2026-05-06 23:16 | 43.04383 | -81.00042 | 1905 ft | 143 kts | 229° |
| 2026-05-06 23:17 | 43.03707 | -81.01012 | 1946 ft | 138 kts | 234° |
| 2026-05-06 23:17 | 43.03117 | -81.02013 | 2003 ft | 133 kts | 235° |
| 2026-05-06 23:17 | 43.02557 | -81.03009 | 2055 ft | 132 kts | 237° |
| 2026-05-06 23:17 | 43.02000 | -81.04015 | 2084 ft | 134 kts | 237° |
| 2026-05-06 23:18 | 43.01422 | -81.05014 | 2124 ft | 133 kts | 237° |
| 2026-05-06 23:18 | 43.00855 | -81.06013 | 2181 ft | 134 kts | 236° |
| 2026-05-06 23:18 | 43.00291 | -81.07031 | 2231 ft | 134 kts | 240° |
| 2026-05-06 23:18 | 42.99748 | -81.08075 | 2264 ft | 135 kts | 241° |
| 2026-05-06 23:19 | 42.99487 | -81.09288 | 2281 ft | 133 kts | 275° |
| 2026-05-06 23:19 | 42.99682 | -81.10440 | 2144 ft | 121 kts | 303° |
| 2026-05-06 23:19 | 43.00236 | -81.11272 | 1954 ft | 115 kts | 320° |
| 2026-05-06 23:19 | 43.00783 | -81.11926 | 1733 ft | 93 kts | 323° |
| 2026-05-06 23:20 | 43.01248 | -81.12433 | 1485 ft | 83 kts | 321° |
| 2026-05-06 23:20 | 43.01664 | -81.12918 | 1271 ft | 77 kts | 317° |
| 2026-05-06 23:20 | 43.02062 | -81.13402 | 1102 ft | 72 kts | 318° |
| 2026-05-06 23:20 | 43.02417 | -81.13819 | 930 ft | 61 kts | 314° |
| 2026-05-06 23:21 | 43.02655 | -81.14114 | 903 ft | 33 kts | 318° |
| 2026-05-06 23:21 | 43.02959 | -81.14468 | 975 ft | 75 kts | 312° |
| 2026-05-06 23:21 | 43.03391 | -81.14996 | 1242 ft | 82 kts | 317° |
| 2026-05-06 23:21 | 43.03839 | -81.15558 | 1555 ft | 92 kts | 314° |
| 2026-05-06 23:22 | 43.04301 | -81.16223 | 1893 ft | 101 kts | 313° |
| 2026-05-06 23:22 | 43.04866 | -81.16820 | 2061 ft | 109 kts | 345° |
| 2026-05-06 23:22 | 43.05640 | -81.16670 | 2058 ft | 118 kts | 28° |
| 2026-05-06 23:22 | 43.06098 | -81.15763 | 2055 ft | 121 kts | 71° |
| 2026-05-06 23:23 | 43.05969 | -81.14603 | 2010 ft | 132 kts | 114° |
| 2026-05-06 23:23 | 43.05401 | -81.13602 | 2017 ft | 134 kts | 131° |
| 2026-05-06 23:23 | 43.04751 | -81.12694 | 1981 ft | 134 kts | 133° |
| 2026-05-06 23:23 | 43.04091 | -81.11803 | 1994 ft | 133 kts | 134° |
| 2026-05-06 23:24 | 43.03440 | -81.10899 | 1970 ft | 135 kts | 131° |
| 2026-05-06 23:24 | 43.02822 | -81.09964 | 1961 ft | 131 kts | 128° |
| 2026-05-06 23:24 | 43.02230 | -81.09011 | 1961 ft | 133 kts | 130° |
| 2026-05-06 23:24 | 43.01477 | -81.08322 | 1969 ft | 133 kts | 156° |
| 2026-05-06 23:25 | 43.00609 | -81.07824 | 1932 ft | 134 kts | 157° |
| 2026-05-06 23:25 | 42.99708 | -81.07773 | 1920 ft | 136 kts | 207° |
| 2026-05-06 23:25 | 42.99214 | -81.08775 | 1843 ft | 132 kts | 273° |
| 2026-05-06 23:25 | 42.99463 | -81.09893 | 1812 ft | 115 kts | 297° |
| 2026-05-06 23:26 | 42.99835 | -81.10805 | 1718 ft | 103 kts | 316° |
| 2026-05-06 23:26 | 43.00327 | -81.11378 | 1523 ft | 86 kts | 322° |
| 2026-05-06 23:26 | 43.00750 | -81.11836 | 1438 ft | 75 kts | 320° |
| 2026-05-06 23:26 | 43.01160 | -81.12338 | 1339 ft | 80 kts | 319° |
| 2026-05-06 23:27 | 43.01589 | -81.12832 | 1226 ft | 81 kts | 316° |
| 2026-05-06 23:27 | 43.02006 | -81.13325 | 1114 ft | 77 kts | 316° |
| 2026-05-06 23:27 | 43.02391 | -81.13789 | 949 ft | 69 kts | 314° |
| 2026-05-06 23:27 | 43.02688 | -81.14151 | 903 ft | 42 kts | 312° |
| 2026-05-06 23:28 | 43.02903 | -81.14414 | 905 ft | 63 kts | 319° |
| 2026-05-06 23:28 | 43.03292 | -81.14896 | 1089 ft | 83 kts | 313° |
| 2026-05-06 23:28 | 43.03561 | -81.15271 | 1319 ft | 82 kts | 307° |
| 2026-05-06 23:28 | 43.03887 | -81.15922 | 1700 ft | 88 kts | 309° |
| 2026-05-06 23:29 | 43.04297 | -81.16604 | 2003 ft | 101 kts | 311° |
| 2026-05-06 23:29 | 43.04827 | -81.17245 | 2115 ft | 103 kts | 343° |
| 2026-05-06 23:29 | 43.05528 | -81.17070 | 2153 ft | 110 kts | 34° |
| 2026-05-06 23:29 | 43.05908 | -81.16149 | 2188 ft | 117 kts | 76° |
| 2026-05-06 23:30 | 43.05788 | -81.15025 | 2174 ft | 126 kts | 110° |
| 2026-05-06 23:30 | 43.05239 | -81.14065 | 2156 ft | 131 kts | 131° |
| 2026-05-06 23:30 | 43.04587 | -81.13198 | 2095 ft | 130 kts | 135° |
| 2026-05-06 23:30 | 43.03930 | -81.12358 | 2009 ft | 128 kts | 135° |
| 2026-05-06 23:31 | 43.03277 | -81.11554 | 1924 ft | 126 kts | 137° |
| 2026-05-06 23:31 | 43.02618 | -81.10770 | 1839 ft | 125 kts | 137° |
| 2026-05-06 23:31 | 43.01945 | -81.09998 | 1783 ft | 127 kts | 139° |
| 2026-05-06 23:31 | 43.01255 | -81.09207 | 1732 ft | 130 kts | 138° |
| 2026-05-06 23:32 | 43.00570 | -81.08410 | 1704 ft | 128 kts | 139° |
| 2026-05-06 23:32 | 42.99896 | -81.07614 | 1707 ft | 128 kts | 138° |
| 2026-05-06 23:32 | 42.99189 | -81.06878 | 1673 ft | 127 kts | 154° |
| 2026-05-06 23:32 | 42.98362 | -81.06843 | 1729 ft | 118 kts | 207° |
| 2026-05-06 23:33 | 42.97796 | -81.07604 | 1714 ft | 113 kts | 249° |
| 2026-05-06 23:33 | 42.97800 | -81.08594 | 1737 ft | 104 kts | 302° |
| 2026-05-06 23:33 | 42.98296 | -81.09288 | 1731 ft | 102 kts | 323° |
| 2026-05-06 23:33 | 42.98839 | -81.09772 | 1716 ft | 78 kts | 328° |
| 2026-05-06 23:34 | 42.99225 | -81.10099 | 1638 ft | 61 kts | 320° |
| 2026-05-06 23:34 | 42.99645 | -81.10530 | 1833 ft | 91 kts | 320° |
| 2026-05-06 23:34 | 43.00116 | -81.11131 | 2211 ft | 94 kts | 320° |
| 2026-05-06 23:34 | 43.00702 | -81.11581 | 2553 ft | 101 kts | 353° |
| 2026-05-06 23:35 | 43.01385 | -81.11297 | 2814 ft | 112 kts | 35° |
| 2026-05-06 23:35 | 43.01993 | -81.10528 | 2955 ft | 125 kts | 40° |
| 2026-05-06 23:35 | 43.02608 | -81.09692 | 3037 ft | 124 kts | 41° |
| 2026-05-06 23:35 | 43.03122 | -81.08758 | 3051 ft | 126 kts | 68° |
| 2026-05-06 23:36 | 43.03023 | -81.07534 | 2918 ft | 136 kts | 109° |
| 2026-05-06 23:36 | 43.02452 | -81.06503 | 2710 ft | 136 kts | 133° |
| 2026-05-06 23:36 | 43.01776 | -81.05632 | 2533 ft | 133 kts | 136° |
| 2026-05-06 23:36 | 43.01013 | -81.04950 | 2357 ft | 130 kts | 168° |
| 2026-05-06 23:37 | 43.00211 | -81.05283 | 2238 ft | 123 kts | 223° |
| 2026-05-06 23:37 | 42.99572 | -81.06084 | 2112 ft | 126 kts | 229° |
| 2026-05-06 23:37 | 42.98976 | -81.06934 | 2100 ft | 123 kts | 236° |
| 2026-05-06 23:37 | 42.98717 | -81.07956 | 2106 ft | 108 kts | 278° |
| 2026-05-06 23:38 | 42.98830 | -81.08933 | 1966 ft | 102 kts | 286° |
| 2026-05-06 23:38 | 42.99038 | -81.09768 | 1840 ft | 79 kts | 310° |
| 2026-05-06 23:38 | 42.99397 | -81.10241 | 1676 ft | 67 kts | 321° |
| 2026-05-06 23:38 | 42.99737 | -81.10619 | 1541 ft | 60 kts | 321° |
| 2026-05-06 23:39 | 43.00097 | -81.11037 | 1469 ft | 80 kts | 316° |
| 2026-05-06 23:39 | 43.00501 | -81.11558 | 1431 ft | 77 kts | 320° |
| 2026-05-06 23:39 | 43.00917 | -81.12014 | 1397 ft | 78 kts | 318° |
| 2026-05-06 23:39 | 43.01324 | -81.12498 | 1322 ft | 74 kts | 317° |
| 2026-05-06 23:40 | 43.01673 | -81.12930 | 1236 ft | 64 kts | 316° |
| 2026-05-06 23:40 | 43.02023 | -81.13343 | 1156 ft | 68 kts | 316° |
| 2026-05-06 23:40 | 43.02392 | -81.13792 | 1036 ft | 71 kts | 315° |
| 2026-05-06 23:40 | 43.02722 | -81.14187 | 907 ft | 53 kts | 312° |
| 2026-05-06 23:41 | 43.02913 | -81.14457 | 903 ft | 29 kts | 301° |
| 2026-05-06 23:41 | 43.02899 | -81.14638 | 903 ft | 15 kts | 226° |
| 2026-05-06 23:41 | 43.02915 | -81.14739 | 903 ft | 15 kts | 311° |
| 2026-05-06 23:41 | 43.03003 | -81.14853 | 903 ft | 20 kts | 318° |
| 2026-05-06 23:42 | 43.03094 | -81.14961 | 903 ft | 15 kts | 319° |
| 2026-05-06 23:42 | 43.03160 | -81.15041 | 903 ft | 11 kts | 313° |
| 2026-05-06 23:42 | 43.03220 | -81.15116 | 903 ft | 16 kts | 318° |
| 2026-05-06 23:42 | 43.03229 | -81.15247 | 903 ft | 15 kts | 243° |
| 2026-05-06 23:43 | 43.03179 | -81.15272 | 903 ft | 6 kts | 168° |
| 2026-05-06 23:43 | 43.03174 | -81.15292 | 903 ft | 0 kts | 316° |